Mont Saint Michel — FNMT — position and weather

sailwx.info

Track history (hours):
 
Tides and Currents Weather Stations Pressure Air Temp Water Temp Dewpoint Dewpoint Depression Visibility Wind Speed Wind Dir Waves Ship Positions

Mont Saint Michel

Last reported at 2016-May-30 04:34 UTC. Time now 2016-May-30 04:55 UTC.
Position N 49°17' W 000°15'.

Length 173 m; beam 29 m.

Type: Ship. MMSI: 227023100.

Date/timePositionNaut miles runAvg speedWind from/ knotsBaromVisibWave heightAir tempDewpointWater temp
2016-May-30 04:34N 49°17' W 000°15'1616.0
2016-May-30 03:33N 49°33' W 000°22'1212.4
2016-May-30 02:34N 49°45' W 000°27'1716.6
2016-May-30 01:34N 49°60' W 000°37'1717.1
2016-May-30 00:33N 50°16' W 000°46'1717.0
2016-May-29 23:34N 50°32' W 000°54'1515.1
2016-May-29 22:34N 50°45' W 001°05'3 3.2
2016-May-29 21:33N 50°49' W 001°06'0 0.0
2016-May-29 20:34N 50°49' W 001°06'5 5.4
2016-May-29 19:33N 50°44' W 001°03'1817.9
2016-May-29 18:33N 50°27' W 000°53'1919.0
2016-May-29 17:33N 50°09' W 000°43'1919.2
2016-May-29 16:34N 49°51' W 000°31'1918.8
2016-May-29 15:33N 49°34' W 000°22'1716.8
2016-May-29 14:33N 49°17' W 000°15'0 0.0
2016-May-29 13:33N 49°17' W 000°15'2 1.9
2016-May-29 12:34N 49°19' W 000°15'2019.9
2016-May-29 11:34N 49°38' W 000°26'2019.5
2016-May-29 10:33N 49°56' W 000°37'1919.1
2016-May-29 09:33N 50°14' W 000°47'1919.2
2016-May-29 08:34N 50°32' W 000°55'1615.9
2016-May-29 07:34N 50°47' W 001°06'2 2.0
2016-May-29 06:34N 50°49' W 001°06'0 0.0
2016-May-29 05:33N 50°49' W 001°06'1313.2
2016-May-29 04:33N 50°37' W 000°57'1515.2
2016-May-29 03:33N 50°23' W 000°47'1110.8
2016-May-29 02:32N 50°12' W 000°43'1010.3
2016-May-29 01:33N 50°03' W 000°37'1010.5
2016-May-29 00:33N 49°53' W 000°32'1110.7
2016-May-28 23:33N 49°43' W 000°28'1111.0
2016-May-28 22:33N 49°32' W 000°21'1110.6
2016-May-28 21:33N 49°22' W 000°16'5 5.0
2016-May-28 20:33N 49°17' W 000°15'0 0.0
2016-May-28 19:33N 49°17' W 000°15'1211.6
2016-May-28 18:33N 49°29' W 000°18'1919.5
2016-May-28 17:33N 49°47' W 000°29'1818.0
2016-May-28 16:33N 50°03' W 000°41'1919.4
2016-May-28 15:33N 50°22' W 000°46'2020.3
2016-May-28 14:33N 50°41' W 001°00'9 8.7
2016-May-28 13:34N 50°49' W 001°06'0 0.0
2016-May-28 12:33N 50°49' W 001°06'5 5.0
2016-May-28 11:34N 50°44' W 001°03'1918.3
2016-May-28 10:33N 50°27' W 000°52'1918.9
2016-May-28 09:33N 50°10' W 000°38'1919.5
2016-May-28 08:33N 49°52' W 000°30'2019.7
2016-May-28 07:34N 49°33' W 000°20'1616.1
2016-May-28 06:33N 49°17' W 000°15'0 0.0
2016-May-28 05:33N 49°17' W 000°15'0 0.1
2016-May-28 04:33N 49°17' W 000°15'1514.5
2016-May-28 03:34N 49°31' W 000°19'1413.6
2016-May-28 02:33N 49°45' W 000°25'1616.5
2016-May-28 01:33N 49°60' W 000°35'1616.3
2016-May-28 00:33N 50°15' W 000°42'1616.4
2016-May-27 23:33N 50°31' W 000°51'1616.0
2016-May-27 22:34N 50°44' W 001°04'5 4.5
2016-May-27 21:33N 50°49' W 001°06'0 0.0
2016-May-27 20:33N 50°49' W 001°06'3 2.5
2016-May-27 19:34N 50°46' W 001°05'1818.4
2016-May-27 18:34N 50°30' W 000°52'1918.5
2016-May-27 17:33N 50°12' W 000°43'1919.2
2016-May-27 16:33N 49°54' W 000°33'1919.2
2016-May-27 15:34N 49°36' W 000°23'1918.6
2016-May-27 14:33N 49°18' W 000°15'1 1.0
2016-May-27 13:33N 49°17' W 000°15'2 1.7
2016-May-27 12:33N 49°19' W 000°15'1919.0
2016-May-27 11:33N 49°37' W 000°23'1919.4
2016-May-27 10:33N 49°55' W 000°34'2120.8
2016-May-27 09:33N 50°15' W 000°45'2121.1
2016-May-27 08:33N 50°35' W 000°56'1515.3
2016-May-27 07:34N 50°49' W 001°06'0 0.4
2016-May-27 06:34N 50°49' W 001°06'1 1.1
2016-May-27 05:34N 50°48' W 001°07'1312.6
2016-May-27 04:34N 50°36' W 000°58'1212.1
2016-May-27 03:33N 50°25' W 000°51'1111.3
2016-May-27 02:33N 50°14' W 000°45'1211.5
2016-May-27 01:33N 50°04' W 000°39'1111.2
2016-May-27 00:33N 49°53' W 000°33'1111.0
2016-May-26 23:33N 49°43' W 000°27'1211.7
2016-May-26 22:33N 49°32' W 000°22'1111.1
2016-May-26 21:33N 49°21' W 000°15'4 4.1
2016-May-26 20:33N 49°17' W 000°15'0 0.0
2016-May-26 19:33N 49°17' W 000°15'1010.5
2016-May-26 18:34N 49°28' W 000°17'1919.0
2016-May-26 17:33N 49°45' W 000°28'2019.5
2016-May-26 16:33N 50°04' W 000°39'2019.7
2016-May-26 15:34N 50°22' W 000°51'2020.1
2016-May-26 14:34N 50°41' W 001°01'9 8.6
2016-May-26 13:33N 50°49' W 001°06'0 0.0
2016-May-26 12:34N 50°49' W 001°06'4 3.9
2016-May-26 11:34N 50°45' W 001°05'1919.4
2016-May-26 10:33N 50°27' W 000°53'2020.5
2016-May-26 09:33N 50°08' W 000°43'1919.4
2016-May-26 08:33N 49°49' W 000°33'1919.4
2016-May-26 07:33N 49°31' W 000°21'1514.6
2016-May-26 06:33N 49°17' W 000°15'0 0.0
2016-May-26 05:33N 49°17' W 000°15'0 0.1
2016-May-26 04:33N 49°17' W 000°15'1515.0
2016-May-26 03:33N 49°32' W 000°20'1211.8
2016-May-26 02:33N 49°43' W 000°26'1211.6
2016-May-26 01:33N 49°54' W 000°32'1211.8
2016-May-26 00:34N 50°05' W 000°37'1211.7
2016-May-25 23:33N 50°16' W 000°44'1616.1
2016-May-25 22:33N 50°31' W 000°54'1515.1
2016-May-25 21:34N 50°44' W 001°04'4 4.4
2016-May-25 20:33N 50°49' W 001°06'0 0.0
2016-May-25 19:33N 50°49' W 001°06'0 0.0
2016-May-25 18:33N 50°49' W 001°06'4 3.8
2016-May-25 17:34N 50°45' W 001°05'1818.3
2016-May-25 16:33N 50°29' W 000°52'1616.5
2016-May-25 15:33N 50°13' W 000°45'1717.1
2016-May-25 14:33N 49°57' W 000°35'1918.8
2016-May-25 13:33N 49°39' W 000°25'1818.3
2016-May-25 12:33N 49°22' W 000°15'5 4.8
2016-May-25 11:33N 49°17' W 000°15'0 0.0
2016-May-25 10:33N 49°17' W 000°15'0 0.0
2016-May-25 09:33N 49°17' W 000°15'0 0.0
2016-May-25 08:33N 49°17' W 000°15'0 0.0
2016-May-25 07:33N 49°17' W 000°15'0 0.0
2016-May-25 06:33N 49°17' W 000°15'0 0.0
2016-May-25 05:33N 49°17' W 000°15'1111.2
2016-May-25 04:33N 49°28' W 000°18'10 9.6
2016-May-25 03:33N 49°37' W 000°24'1312.8
2016-May-25 02:33N 49°49' W 000°32'1414.1
2016-May-25 01:33N 50°02' W 000°41'3014.9
2016-May-24 23:33N 50°30' W 000°54'1414.4
2016-May-24 22:33N 50°44' W 001°03'5 5.3
2016-May-24 21:33N 50°49' W 001°06'0 0.0
2016-May-24 20:33N 50°49' W 001°06'4 4.1
2016-May-24 19:34N 50°45' W 001°05'2219.0
2016-May-24 18:24N 50°24' W 000°51'1619.4
2016-May-24 17:34N 50°09' W 000°42'2019.7
2016-May-24 16:33N 49°51' W 000°30'2019.6
2016-May-24 15:34N 49°32' W 000°20'1515.5
2016-May-24 14:33N 49°17' W 000°15'0 0.0
2016-May-24 13:33N 49°17' W 000°15'2 1.6
2016-May-24 12:33N 49°19' W 000°15'1919.3
2016-May-24 11:34N 49°38' W 000°22'1918.5
2016-May-24 10:33N 49°55' W 000°30'1717.3
2016-May-24 09:33N 50°11' W 000°41'1818.1
2016-May-24 08:33N 50°27' W 000°54'1918.8
2016-May-24 07:33N 50°45' W 001°05'4 4.0
2016-May-24 06:33N 50°49' W 001°06'0 0.0
2016-May-24 05:33N 50°49' W 001°06'9 9.5
2016-May-24 04:33N 50°41' W 000°58'1313.4
2016-May-24 03:33N 50°28' W 000°53'1111.0
2016-May-24 02:33N 50°17' W 000°47'1211.7
2016-May-24 01:33N 50°06' W 000°41'1212.2
2016-May-24 00:33N 49°55' W 000°33'1211.6
2016-May-23 23:33N 49°44' W 000°27'1312.6
2016-May-23 22:33N 49°32' W 000°21'1211.6
2016-May-23 21:33N 49°21' W 000°15'4 3.8
2016-May-23 20:33N 49°17' W 000°15'0 0.0
2016-May-23 19:33N 49°17' W 000°15'1211.7
2016-May-23 18:33N 49°29' W 000°19'1919.0
2016-May-23 17:33N 49°47' W 000°28'1818.3
2016-May-23 16:33N 50°04' W 000°38'1818.1
2016-May-23 15:33N 50°21' W 000°49'1818.4
2016-May-23 14:33N 50°38' W 000°58'1211.7
2016-May-23 13:34N 50°49' W 001°06'0 0.0
2016-May-23 12:33N 50°49' W 001°06'4 3.7
2016-May-23 11:34N 50°45' W 001°05'2019.7
2016-May-23 10:34N 50°27' W 000°52'2019.9
2016-May-23 09:34N 50°09' W 000°41'1919.3
2016-May-23 08:34N 49°50' W 000°31'1919.0
2016-May-23 07:33N 49°32' W 000°21'1615.7
2016-May-23 06:33N 49°17' W 000°15'0 0.0
2016-May-23 05:33N 49°17' W 000°15'0 0.1
2016-May-23 04:33N 49°17' W 000°15'1413.9
2016-May-23 03:33N 49°31' W 000°20'1817.7
2016-May-23 02:34N 49°47' W 000°29'1616.1
2016-May-23 01:33N 50°02' W 000°40'1916.2
2016-May-23 00:24N 50°20' W 000°47'1416.7
2016-May-22 23:33N 50°33' W 000°55'1616.0
2016-May-22 22:33N 50°47' W 001°07'1 1.3
2016-May-22 21:33N 50°49' W 001°06'0 0.0
2016-May-22 20:33N 50°49' W 001°06'7 6.8
2016-May-22 19:34N 50°43' W 000°60'1616.4
2016-May-22 18:33N 50°28' W 000°51'1817.9
2016-May-22 17:33N 50°11' W 000°41'1817.7
2016-May-22 16:33N 49°54' W 000°34'2019.9
2016-May-22 15:33N 49°35' W 000°23'1818.5
2016-May-22 14:33N 49°17' W 000°15'0 0.1
2016-May-22 13:33N 49°17' W 000°15'2 2.2
2016-May-22 12:33N 49°20' W 000°15'2019.7
2016-May-22 11:33N 49°38' W 000°27'1919.0
2016-May-22 10:33N 49°55' W 000°37'2318.3
2016-May-22 09:19N 50°17' W 000°47'1519.8
2016-May-22 08:33N 50°31' W 000°55'1717.4
2016-May-22 07:33N 50°47' W 001°06'2 1.6
2016-May-22 06:33N 50°49' W 001°06'0 0.2
2016-May-22 05:34N 50°49' W 001°06'1313.0
2016-May-22 04:33N 50°37' W 000°57'2211.0
2016-May-22 02:33N 50°16' W 000°48'1111.4
2016-May-22 01:33N 50°05' W 000°42'1211.8
2016-May-22 00:33N 49°54' W 000°34'1211.9
2016-May-21 23:33N 49°43' W 000°27'1211.6
2016-May-21 22:33N 49°32' W 000°22'1110.7
2016-May-21 21:33N 49°22' W 000°15'5 5.1
2016-May-21 20:33N 49°17' W 000°15'0 0.0
2016-May-21 19:33N 49°17' W 000°15'1110.8
2016-May-21 18:34N 49°28' W 000°17'1919.4
2016-May-21 17:34N 49°46' W 000°29'1918.9
2016-May-21 16:33N 50°04' W 000°38'1918.5
2016-May-21 15:33N 50°21' W 000°47'1818.5
2016-May-21 14:34N 50°38' W 000°58'1111.3
2016-May-21 13:33N 50°49' W 001°06'0 0.0
2016-May-21 12:33N 50°49' W 001°06'4 3.9
2016-May-21 11:33N 50°45' W 001°05'1919.4
2016-May-21 10:33N 50°28' W 000°51'1818.4
2016-May-21 09:33N 50°10' W 000°41'1918.8
2016-May-21 08:33N 49°53' W 000°31'2020.1
2016-May-21 07:33N 49°33' W 000°22'1716.7
2016-May-21 06:33N 49°17' W 000°15'0 0.0
2016-May-21 05:33N 49°17' W 000°15'0 0.1
2016-May-21 04:33N 49°17' W 000°15'1413.9
2016-May-21 03:33N 49°31' W 000°20'1616.2
2016-May-21 02:33N 49°46' W 000°29'1616.4
2016-May-21 01:33N 50°01' W 000°39'1614.6
2016-May-21 00:29N 50°16' W 000°47'1415.3
2016-May-20 23:33N 50°29' W 000°54'1514.6
2016-May-20 22:33N 50°43' W 001°02'6 6.2
2016-May-20 21:34N 50°49' W 001°06'0 0.0
2016-May-20 20:33N 50°49' W 001°06'5 5.4
2016-May-20 19:33N 50°44' W 001°02'1716.8
2016-May-20 18:32N 50°28' W 000°52'1818.2
2016-May-20 17:33N 50°11' W 000°44'1918.8
2016-May-20 16:33N 49°54' W 000°32'1919.1
2016-May-20 15:33N 49°35' W 000°23'1818.5
2016-May-20 14:33N 49°18' W 000°15'0 0.4
2016-May-20 13:33N 49°17' W 000°15'2 2.2
2016-May-20 12:33N 49°20' W 000°15'2019.6
2016-May-20 11:33N 49°38' W 000°26'1818.3
2016-May-20 10:33N 49°55' W 000°36'1919.0
2016-May-20 09:33N 50°13' W 000°46'2020.2
2016-May-20 08:33N 50°32' W 000°56'1716.8
2016-May-20 07:33N 50°47' W 001°07'1 1.5
2016-May-20 06:33N 50°49' W 001°06'0 0.4
2016-May-20 05:33N 50°49' W 001°06'  
Track history (hours):
 
Tides and Currents Weather Stations Pressure Air Temp Water Temp Dewpoint Dewpoint Depression Visibility Wind Speed Wind Dir Waves Ship Positions

Mont Saint Michel

Last reported at 2016-May-30 04:34 UTC. Time now 2016-May-30 04:55 UTC.
Position N 49°17' W 000°15'.

Length 173 m; beam 29 m.

Type: Ship. MMSI: 227023100.

Date/timePositionNaut miles runAvg speedWind from/ knotsBaromVisibWave heightAir tempDewpointWater temp
2016-May-30 04:34N 49°17' W 000°15'1616.0
2016-May-30 03:33N 49°33' W 000°22'1212.4
2016-May-30 02:34N 49°45' W 000°27'1716.6
2016-May-30 01:34N 49°60' W 000°37'1717.1
2016-May-30 00:33N 50°16' W 000°46'1717.0
2016-May-29 23:34N 50°32' W 000°54'1515.1
2016-May-29 22:34N 50°45' W 001°05'3 3.2
2016-May-29 21:33N 50°49' W 001°06'0 0.0
2016-May-29 20:34N 50°49' W 001°06'5 5.4
2016-May-29 19:33N 50°44' W 001°03'1817.9
2016-May-29 18:33N 50°27' W 000°53'1919.0
2016-May-29 17:33N 50°09' W 000°43'1919.2
2016-May-29 16:34N 49°51' W 000°31'1918.8
2016-May-29 15:33N 49°34' W 000°22'1716.8
2016-May-29 14:33N 49°17' W 000°15'0 0.0
2016-May-29 13:33N 49°17' W 000°15'2 1.9
2016-May-29 12:34N 49°19' W 000°15'2019.9
2016-May-29 11:34N 49°38' W 000°26'2019.5
2016-May-29 10:33N 49°56' W 000°37'1919.1
2016-May-29 09:33N 50°14' W 000°47'1919.2
2016-May-29 08:34N 50°32' W 000°55'1615.9
2016-May-29 07:34N 50°47' W 001°06'2 2.0
2016-May-29 06:34N 50°49' W 001°06'0 0.0
2016-May-29 05:33N 50°49' W 001°06'1313.2
2016-May-29 04:33N 50°37' W 000°57'1515.2
2016-May-29 03:33N 50°23' W 000°47'1110.8
2016-May-29 02:32N 50°12' W 000°43'1010.3
2016-May-29 01:33N 50°03' W 000°37'1010.5
2016-May-29 00:33N 49°53' W 000°32'1110.7
2016-May-28 23:33N 49°43' W 000°28'1111.0
2016-May-28 22:33N 49°32' W 000°21'1110.6
2016-May-28 21:33N 49°22' W 000°16'5 5.0
2016-May-28 20:33N 49°17' W 000°15'0 0.0
2016-May-28 19:33N 49°17' W 000°15'1211.6
2016-May-28 18:33N 49°29' W 000°18'1919.5
2016-May-28 17:33N 49°47' W 000°29'1818.0
2016-May-28 16:33N 50°03' W 000°41'1919.4
2016-May-28 15:33N 50°22' W 000°46'2020.3
2016-May-28 14:33N 50°41' W 001°00'9 8.7
2016-May-28 13:34N 50°49' W 001°06'0 0.0
2016-May-28 12:33N 50°49' W 001°06'5 5.0
2016-May-28 11:34N 50°44' W 001°03'1918.3
2016-May-28 10:33N 50°27' W 000°52'1918.9
2016-May-28 09:33N 50°10' W 000°38'1919.5
2016-May-28 08:33N 49°52' W 000°30'2019.7
2016-May-28 07:34N 49°33' W 000°20'1616.1
2016-May-28 06:33N 49°17' W 000°15'0 0.0
2016-May-28 05:33N 49°17' W 000°15'0 0.1
2016-May-28 04:33N 49°17' W 000°15'1514.5
2016-May-28 03:34N 49°31' W 000°19'1413.6
2016-May-28 02:33N 49°45' W 000°25'1616.5
2016-May-28 01:33N 49°60' W 000°35'1616.3
2016-May-28 00:33N 50°15' W 000°42'1616.4
2016-May-27 23:33N 50°31' W 000°51'1616.0
2016-May-27 22:34N 50°44' W 001°04'5 4.5
2016-May-27 21:33N 50°49' W 001°06'0 0.0
2016-May-27 20:33N 50°49' W 001°06'3 2.5
2016-May-27 19:34N 50°46' W 001°05'1818.4
2016-May-27 18:34N 50°30' W 000°52'1918.5
2016-May-27 17:33N 50°12' W 000°43'1919.2
2016-May-27 16:33N 49°54' W 000°33'1919.2
2016-May-27 15:34N 49°36' W 000°23'1918.6
2016-May-27 14:33N 49°18' W 000°15'1 1.0
2016-May-27 13:33N 49°17' W 000°15'2 1.7
2016-May-27 12:33N 49°19' W 000°15'1919.0
2016-May-27 11:33N 49°37' W 000°23'1919.4
2016-May-27 10:33N 49°55' W 000°34'2120.8
2016-May-27 09:33N 50°15' W 000°45'2121.1
2016-May-27 08:33N 50°35' W 000°56'1515.3
2016-May-27 07:34N 50°49' W 001°06'0 0.4
2016-May-27 06:34N 50°49' W 001°06'1 1.1
2016-May-27 05:34N 50°48' W 001°07'1312.6
2016-May-27 04:34N 50°36' W 000°58'1212.1
2016-May-27 03:33N 50°25' W 000°51'1111.3
2016-May-27 02:33N 50°14' W 000°45'1211.5
2016-May-27 01:33N 50°04' W 000°39'1111.2
2016-May-27 00:33N 49°53' W 000°33'1111.0
2016-May-26 23:33N 49°43' W 000°27'1211.7
2016-May-26 22:33N 49°32' W 000°22'1111.1
2016-May-26 21:33N 49°21' W 000°15'4 4.1
2016-May-26 20:33N 49°17' W 000°15'0 0.0
2016-May-26 19:33N 49°17' W 000°15'1010.5
2016-May-26 18:34N 49°28' W 000°17'1919.0
2016-May-26 17:33N 49°45' W 000°28'2019.5
2016-May-26 16:33N 50°04' W 000°39'2019.7
2016-May-26 15:34N 50°22' W 000°51'2020.1
2016-May-26 14:34N 50°41' W 001°01'9 8.6
2016-May-26 13:33N 50°49' W 001°06'0 0.0
2016-May-26 12:34N 50°49' W 001°06'4 3.9
2016-May-26 11:34N 50°45' W 001°05'1919.4
2016-May-26 10:33N 50°27' W 000°53'2020.5
2016-May-26 09:33N 50°08' W 000°43'1919.4
2016-May-26 08:33N 49°49' W 000°33'1919.4
2016-May-26 07:33N 49°31' W 000°21'1514.6
2016-May-26 06:33N 49°17' W 000°15'0 0.0
2016-May-26 05:33N 49°17' W 000°15'0 0.1
2016-May-26 04:33N 49°17' W 000°15'1515.0
2016-May-26 03:33N 49°32' W 000°20'1211.8
2016-May-26 02:33N 49°43' W 000°26'1211.6
2016-May-26 01:33N 49°54' W 000°32'1211.8
2016-May-26 00:34N 50°05' W 000°37'1211.7
2016-May-25 23:33N 50°16' W 000°44'1616.1
2016-May-25 22:33N 50°31' W 000°54'1515.1
2016-May-25 21:34N 50°44' W 001°04'4 4.4
2016-May-25 20:33N 50°49' W 001°06'0 0.0
2016-May-25 19:33N 50°49' W 001°06'0 0.0
2016-May-25 18:33N 50°49' W 001°06'4 3.8
2016-May-25 17:34N 50°45' W 001°05'1818.3
2016-May-25 16:33N 50°29' W 000°52'1616.5
2016-May-25 15:33N 50°13' W 000°45'1717.1
2016-May-25 14:33N 49°57' W 000°35'1918.8
2016-May-25 13:33N 49°39' W 000°25'1818.3
2016-May-25 12:33N 49°22' W 000°15'5 4.8
2016-May-25 11:33N 49°17' W 000°15'0 0.0
2016-May-25 10:33N 49°17' W 000°15'0 0.0
2016-May-25 09:33N 49°17' W 000°15'0 0.0
2016-May-25 08:33N 49°17' W 000°15'0 0.0
2016-May-25 07:33N 49°17' W 000°15'0 0.0
2016-May-25 06:33N 49°17' W 000°15'0 0.0
2016-May-25 05:33N 49°17' W 000°15'1111.2
2016-May-25 04:33N 49°28' W 000°18'10 9.6
2016-May-25 03:33N 49°37' W 000°24'1312.8
2016-May-25 02:33N 49°49' W 000°32'1414.1
2016-May-25 01:33N 50°02' W 000°41'3014.9
2016-May-24 23:33N 50°30' W 000°54'1414.4
2016-May-24 22:33N 50°44' W 001°03'5 5.3
2016-May-24 21:33N 50°49' W 001°06'0 0.0
2016-May-24 20:33N 50°49' W 001°06'4 4.1
2016-May-24 19:34N 50°45' W 001°05'2219.0
2016-May-24 18:24N 50°24' W 000°51'1619.4
2016-May-24 17:34N 50°09' W 000°42'2019.7
2016-May-24 16:33N 49°51' W 000°30'2019.6
2016-May-24 15:34N 49°32' W 000°20'1515.5
2016-May-24 14:33N 49°17' W 000°15'0 0.0
2016-May-24 13:33N 49°17' W 000°15'2 1.6
2016-May-24 12:33N 49°19' W 000°15'1919.3
2016-May-24 11:34N 49°38' W 000°22'1918.5
2016-May-24 10:33N 49°55' W 000°30'1717.3
2016-May-24 09:33N 50°11' W 000°41'1818.1
2016-May-24 08:33N 50°27' W 000°54'1918.8
2016-May-24 07:33N 50°45' W 001°05'4 4.0
2016-May-24 06:33N 50°49' W 001°06'0 0.0
2016-May-24 05:33N 50°49' W 001°06'9 9.5
2016-May-24 04:33N 50°41' W 000°58'1313.4
2016-May-24 03:33N 50°28' W 000°53'1111.0
2016-May-24 02:33N 50°17' W 000°47'1211.7
2016-May-24 01:33N 50°06' W 000°41'1212.2
2016-May-24 00:33N 49°55' W 000°33'1211.6
2016-May-23 23:33N 49°44' W 000°27'1312.6
2016-May-23 22:33N 49°32' W 000°21'1211.6
2016-May-23 21:33N 49°21' W 000°15'4 3.8
2016-May-23 20:33N 49°17' W 000°15'0 0.0
2016-May-23 19:33N 49°17' W 000°15'1211.7
2016-May-23 18:33N 49°29' W 000°19'1919.0
2016-May-23 17:33N 49°47' W 000°28'1818.3
2016-May-23 16:33N 50°04' W 000°38'1818.1
2016-May-23 15:33N 50°21' W 000°49'1818.4
2016-May-23 14:33N 50°38' W 000°58'1211.7
2016-May-23 13:34N 50°49' W 001°06'0 0.0
2016-May-23 12:33N 50°49' W 001°06'4 3.7
2016-May-23 11:34N 50°45' W 001°05'2019.7
2016-May-23 10:34N 50°27' W 000°52'2019.9
2016-May-23 09:34N 50°09' W 000°41'1919.3
2016-May-23 08:34N 49°50' W 000°31'1919.0
2016-May-23 07:33N 49°32' W 000°21'1615.7
2016-May-23 06:33N 49°17' W 000°15'0 0.0
2016-May-23 05:33N 49°17' W 000°15'0 0.1
2016-May-23 04:33N 49°17' W 000°15'1413.9
2016-May-23 03:33N 49°31' W 000°20'1817.7
2016-May-23 02:34N 49°47' W 000°29'1616.1
2016-May-23 01:33N 50°02' W 000°40'1916.2
2016-May-23 00:24N 50°20' W 000°47'1416.7
2016-May-22 23:33N 50°33' W 000°55'1616.0
2016-May-22 22:33N 50°47' W 001°07'1 1.3
2016-May-22 21:33N 50°49' W 001°06'0 0.0
2016-May-22 20:33N 50°49' W 001°06'7 6.8
2016-May-22 19:34N 50°43' W 000°60'1616.4
2016-May-22 18:33N 50°28' W 000°51'1817.9
2016-May-22 17:33N 50°11' W 000°41'1817.7
2016-May-22 16:33N 49°54' W 000°34'2019.9
2016-May-22 15:33N 49°35' W 000°23'1818.5
2016-May-22 14:33N 49°17' W 000°15'0 0.1
2016-May-22 13:33N 49°17' W 000°15'2 2.2
2016-May-22 12:33N 49°20' W 000°15'2019.7
2016-May-22 11:33N 49°38' W 000°27'1919.0
2016-May-22 10:33N 49°55' W 000°37'2318.3
2016-May-22 09:19N 50°17' W 000°47'1519.8
2016-May-22 08:33N 50°31' W 000°55'1717.4
2016-May-22 07:33N 50°47' W 001°06'2 1.6
2016-May-22 06:33N 50°49' W 001°06'0 0.2
2016-May-22 05:34N 50°49' W 001°06'1313.0
2016-May-22 04:33N 50°37' W 000°57'2211.0
2016-May-22 02:33N 50°16' W 000°48'1111.4
2016-May-22 01:33N 50°05' W 000°42'1211.8
2016-May-22 00:33N 49°54' W 000°34'1211.9
2016-May-21 23:33N 49°43' W 000°27'1211.6
2016-May-21 22:33N 49°32' W 000°22'1110.7
2016-May-21 21:33N 49°22' W 000°15'5 5.1
2016-May-21 20:33N 49°17' W 000°15'0 0.0
2016-May-21 19:33N 49°17' W 000°15'1110.8
2016-May-21 18:34N 49°28' W 000°17'1919.4
2016-May-21 17:34N 49°46' W 000°29'1918.9
2016-May-21 16:33N 50°04' W 000°38'1918.5
2016-May-21 15:33N 50°21' W 000°47'1818.5
2016-May-21 14:34N 50°38' W 000°58'1111.3
2016-May-21 13:33N 50°49' W 001°06'0 0.0
2016-May-21 12:33N 50°49' W 001°06'4 3.9
2016-May-21 11:33N 50°45' W 001°05'1919.4
2016-May-21 10:33N 50°28' W 000°51'1818.4
2016-May-21 09:33N 50°10' W 000°41'1918.8
2016-May-21 08:33N 49°53' W 000°31'2020.1
2016-May-21 07:33N 49°33' W 000°22'1716.7
2016-May-21 06:33N 49°17' W 000°15'0 0.0
2016-May-21 05:33N 49°17' W 000°15'0 0.1
2016-May-21 04:33N 49°17' W 000°15'1413.9
2016-May-21 03:33N 49°31' W 000°20'1616.2
2016-May-21 02:33N 49°46' W 000°29'1616.4
2016-May-21 01:33N 50°01' W 000°39'1614.6
2016-May-21 00:29N 50°16' W 000°47'1415.3
2016-May-20 23:33N 50°29' W 000°54'1514.6
2016-May-20 22:33N 50°43' W 001°02'6 6.2
2016-May-20 21:34N 50°49' W 001°06'0 0.0
2016-May-20 20:33N 50°49' W 001°06'5 5.4
2016-May-20 19:33N 50°44' W 001°02'1716.8
2016-May-20 18:32N 50°28' W 000°52'1818.2
2016-May-20 17:33N 50°11' W 000°44'1918.8
2016-May-20 16:33N 49°54' W 000°32'1919.1
2016-May-20 15:33N 49°35' W 000°23'1818.5
2016-May-20 14:33N 49°18' W 000°15'0 0.4
2016-May-20 13:33N 49°17' W 000°15'2 2.2
2016-May-20 12:33N 49°20' W 000°15'2019.6
2016-May-20 11:33N 49°38' W 000°26'1818.3
2016-May-20 10:33N 49°55' W 000°36'1919.0
2016-May-20 09:33N 50°13' W 000°46'2020.2
2016-May-20 08:33N 50°32' W 000°56'1716.8
2016-May-20 07:33N 50°47' W 001°07'1 1.5
2016-May-20 06:33N 50°49' W 001°06'0 0.4
2016-May-20 05:33N 50°49' W 001°06'  

Dump ship's entire track history